Pagina principale
METAR-TAF:

METAR-TAF

Aeroporti :

Aeroporto di Gran Canaria

Gran Canaria, Spagna

latitudine: 27-56N, longitudine: 015-23W, altezza: 23 m

Osservazione

Il bollettino è stato emesso 28 minuti fa, alle 19:00 UTC
Vento 2 kt da direzioni variabili
Temperature 24°C
Umidità 27%
Pressione 1024 hPa
Visibilità: 6000 m

METAR: GCLP 241900Z VRB02KT 6000 NSC 24/04 Q1024 NOSIG

Ora: 19:28 (19:28 UTC)

Previsione

Il bollettino è stato emesso 5 ore e 28 minuti fa, alle 14:00 UTC
Previsione valida dal 24 alle 15 UTC al 25 alle 15 UTC
Vento 5 kt da est
Visibilità: 4000 m
foschia
Probabilità 40% :
Temporaneamente
dal 24 alle 15 UTC al 24 alle 20 UTC
Visibilità: 1500 m
foschia
Evoluzione graduale
dal 24 alle 16 UTC al 24 alle 18 UTC
Vento 10 kt da nord
Evoluzione graduale
dal 24 alle 20 UTC al 24 alle 22 UTC
Visibilità: 7000 m

TAF: GCLP 241400Z 2415/2515 10005KT 4000 HZ NSC TX25/2514Z TN20/2506Z PROB40 TEMPO 2415/2420 1500 HZ BECMG 2416/2418 36010KT BECMG 2420/2422 7000 NSW

Osservazioni e previsioni meteorologiche di più di 4000 aeroporti (messaggi METAR e TAF).

Le stazioni disponibili sono rappresentate dai dischi gialli e rossi sulla carta.

Puntare il mouse per vedere il nome della stazione.

Clicca sopra per visualizzare le osservazioni e previsioni meteorologiche.

Per cambiare la mappa : fare clic sui pulsanti verdi con una croce nera per ingrandire, il pulsante verde con un trattino per diminuire, o sulla freccia verde per le mappe adiacenti.


METAR-TAF: